createdAt,value
2023-02-08T09:34:28.734Z,-0.91
2023-02-08T09:37:42.506Z,-0.59
2023-02-08T09:40:59.919Z,-0.27
2023-02-08T09:48:04.136Z,0.20
2023-02-08T09:51:22.106Z,0.07
2023-02-08T09:54:42.862Z,-0.08
2023-02-08T09:58:07.881Z,0.08
2023-02-08T10:01:19.632Z,0.57
2023-02-08T10:04:38.552Z,0.80
2023-02-08T10:08:09.509Z,1.17
2023-02-08T10:11:49.256Z,1.40
2023-02-08T10:15:13.399Z,1.47
2023-02-08T10:18:53.585Z,1.48
2023-02-08T10:22:21.447Z,1.40
2023-02-08T10:25:59.465Z,1.36
2023-02-08T10:30:00.588Z,1.30
2023-02-08T10:33:09.550Z,1.53
2023-02-08T10:36:17.041Z,1.41
2023-02-08T10:39:25.484Z,1.78
2023-02-08T10:42:30.940Z,1.98
2023-02-08T10:45:42.233Z,2.29
2023-02-08T10:49:00.009Z,2.32
2023-02-08T10:52:03.268Z,1.96
2023-02-08T10:55:14.845Z,1.96
2023-02-08T10:58:21.295Z,2.01
2023-02-08T11:01:24.307Z,2.43
2023-02-08T11:04:27.010Z,2.19
2023-02-08T11:07:30.168Z,1.88
2023-02-08T11:10:33.076Z,2.09
2023-02-08T11:13:39.140Z,2.13
2023-02-08T11:16:43.256Z,2.18
2023-02-08T11:19:46.964Z,2.49
2023-02-08T11:22:49.470Z,2.09
2023-02-08T11:25:53.257Z,2.38
2023-02-08T11:29:06.046Z,2.51
2023-02-08T11:32:18.255Z,2.58
2023-02-08T11:35:22.610Z,2.63
2023-02-08T11:38:27.629Z,2.58
2023-02-08T11:41:30.863Z,2.59
2023-02-08T11:44:36.898Z,2.49
2023-02-08T11:47:39.477Z,2.58
2023-02-08T11:50:42.880Z,2.57
2023-02-08T11:53:49.261Z,2.59
2023-02-08T11:57:02.813Z,2.51
2023-02-08T12:00:21.038Z,2.22
2023-02-08T12:03:27.362Z,2.40
2023-02-08T12:07:02.710Z,2.59
2023-02-08T12:10:32.254Z,2.51
2023-02-08T12:13:57.073Z,2.62
2023-02-08T12:17:25.713Z,2.56
2023-02-08T12:20:37.077Z,2.46
2023-02-08T12:23:51.421Z,2.39
2023-02-08T12:27:08.891Z,2.35
2023-02-08T12:30:21.370Z,2.37
2023-02-08T12:33:40.017Z,2.17
2023-02-08T12:37:16.366Z,2.19
2023-02-08T12:40:49.012Z,2.32
2023-02-08T12:44:02.274Z,2.54
2023-02-08T12:47:16.961Z,2.53
2023-02-08T12:50:27.426Z,2.57
2023-02-08T12:53:34.789Z,2.55
2023-02-08T12:56:42.441Z,2.72
2023-02-08T12:59:50.679Z,2.86
2023-02-08T13:03:02.900Z,3.00
2023-02-08T13:06:09.002Z,2.78
2023-02-08T13:09:18.940Z,2.76
2023-02-08T13:12:24.862Z,2.89
2023-02-08T13:15:33.775Z,3.00
2023-02-08T13:18:40.914Z,3.21
2023-02-08T13:21:45.545Z,3.28
2023-02-08T13:24:55.294Z,3.22
2023-02-08T13:28:05.832Z,3.13
2023-02-08T13:31:14.215Z,3.12
2023-02-08T13:34:23.485Z,3.10
2023-02-08T13:37:31.469Z,3.14
2023-02-08T13:40:36.264Z,3.09
2023-02-08T13:43:43.572Z,3.16
2023-02-08T13:46:48.579Z,3.06
2023-02-08T13:50:00.858Z,3.09
2023-02-08T13:53:05.342Z,3.26
2023-02-08T13:56:10.350Z,3.31
2023-02-08T13:59:30.133Z,3.20
2023-02-08T14:02:32.645Z,3.25
2023-02-08T14:05:47.293Z,3.20
2023-02-08T14:08:58.369Z,3.09
2023-02-08T14:12:06.250Z,3.04
2023-02-08T14:15:26.459Z,3.14
2023-02-08T14:18:29.833Z,2.92
2023-02-08T14:21:37.348Z,2.75
2023-02-08T14:24:43.913Z,2.79
2023-02-08T14:27:52.470Z,2.74
2023-02-08T14:30:58.829Z,2.59
2023-02-08T14:34:01.525Z,2.68
2023-02-08T14:37:07.574Z,2.66
2023-02-08T14:40:35.107Z,2.76
2023-02-08T14:43:39.119Z,2.57
2023-02-08T14:46:45.641Z,2.44
2023-02-08T14:49:48.966Z,2.26
2023-02-08T14:52:59.883Z,2.08
2023-02-08T14:56:08.507Z,2.02
2023-02-08T14:59:15.718Z,1.83
2023-02-08T15:02:22.861Z,1.69
2023-02-08T15:05:28.069Z,1.61
2023-02-08T15:08:30.722Z,1.47
2023-02-08T15:11:36.350Z,1.40
2023-02-08T15:14:41.834Z,1.33
2023-02-08T15:17:48.075Z,1.24
2023-02-08T15:21:01.712Z,1.19
2023-02-08T15:24:07.847Z,1.08
2023-02-08T15:27:21.959Z,1.02
2023-02-08T15:30:32.754Z,0.97
2023-02-08T15:33:38.129Z,0.85
2023-02-08T15:36:40.920Z,0.65
2023-02-08T15:39:43.756Z,0.42
2023-02-08T15:42:47.634Z,0.32
2023-02-08T15:45:57.691Z,0.31
2023-02-08T15:49:00.666Z,0.17
2023-02-08T15:52:04.207Z,0.10
2023-02-08T15:55:07.859Z,-0.05
2023-02-08T15:58:19.426Z,-0.20
